Terminal Aerodrome Forecast
Issued by NWS

Home | Current Version | Previous Version | Text Only | Print | Product List | Glossary On
Versions: 1 2 3 4 5 6 7 8 9 10 11 12 13 14 15 16 17 18
109
FTAK31 PAJN 020340 AAA
TAFASI
TAF AMD
PASI 020340Z 0204/0224 VRB06KT 6SM -RA BR FEW010 BKN035 OVC050
      TEMPO 0204/0208 15010KT 3SM RA BR FEW006 BKN010 OVC020
     FM020800 16015G25KT 3SM RA BR SCT010 OVC030 WS020/18035KT
     FM021800 21010KT 4SM -RA BR BKN010 OVC015
     FM022100 24010KT P6SM VCSH SCT025 BKN040 BKN060=

USA.gov is the U.S. government's official web portal to all federal, state and local government web resources and services.